EGEO/OBN METAR and TAF weather

Enter ICAO airport designator
Station Type Date Time Source
EGEO METAR 2018/10/20 15:50 UTC NOAA

EGEO 201550Z 23011KT 4000 -DZ BR OVC008 14/14 Q1023


Station Type Date Time Source
EGEO Decoded METAR 2018/10/20 15:50 UTC NOAA

Station name not available
Oct 20, 2018 - 11:50 AM EDT / 2018.10.20 1550 UTC
Wind: from the SW (230 degrees) at 13 MPH (11 KT):0
Visibility: 2 mile(s):0
Sky conditions: overcast
Weather: light drizzle; mist
Temperature: 57 F (14 C)
Dew Point: 57 F (14 C)
Relative Humidity: 100%
Pressure (altimeter): 30.21 in. Hg (1023 hPa)
ob: EGEO 201550Z 23011KT 4000 -DZ BR OVC008 14/14 Q1023
cycle: 16

Station Type Date Time Source
EGEO TAF UTC NOAA

Error!


Example: see airport list